sensor_id;sensor_type;location;lat;lon;timestamp;P1;durP1;ratioP1;P2;durP2;ratioP2
5876;SDS011;2964;42.144;24.730;2023-06-24T00:02:24;10.48;;;9.88;;
5876;SDS011;2964;42.144;24.730;2023-06-24T00:04:51;11.15;;;10.35;;
5876;SDS011;2964;42.144;24.730;2023-06-24T00:07:17;10.27;;;9.60;;
5876;SDS011;2964;42.144;24.730;2023-06-24T00:09:47;10.43;;;9.77;;
5876;SDS011;2964;42.144;24.730;2023-06-24T00:12:15;10.43;;;9.70;;
5876;SDS011;2964;42.144;24.730;2023-06-24T00:14:44;11.23;;;10.30;;
5876;SDS011;2964;42.144;24.730;2023-06-24T00:17:11;10.35;;;9.68;;
5876;SDS011;2964;42.144;24.730;2023-06-24T00:19:38;9.98;;;9.38;;
5876;SDS011;2964;42.144;24.730;2023-06-24T00:22:04;10.20;;;9.50;;
5876;SDS011;2964;42.144;24.730;2023-06-24T00:24:31;12.35;;;11.18;;
5876;SDS011;2964;42.144;24.730;2023-06-24T00:26:58;11.63;;;10.35;;
5876;SDS011;2964;42.144;24.730;2023-06-24T00:29:26;10.45;;;9.75;;
5876;SDS011;2964;42.144;24.730;2023-06-24T00:31:53;11.38;;;10.52;;
5876;SDS011;2964;42.144;24.730;2023-06-24T00:34:20;10.77;;;9.73;;
5876;SDS011;2964;42.144;24.730;2023-06-24T00:36:48;11.15;;;10.38;;
5876;SDS011;2964;42.144;24.730;2023-06-24T00:39:15;10.77;;;10.00;;
5876;SDS011;2964;42.144;24.730;2023-06-24T00:41:42;9.88;;;9.32;;
5876;SDS011;2964;42.144;24.730;2023-06-24T00:44:09;11.52;;;10.38;;
5876;SDS011;2964;42.144;24.730;2023-06-24T00:46:37;10.02;;;9.32;;
5876;SDS011;2964;42.144;24.730;2023-06-24T00:49:05;10.98;;;10.18;;
5876;SDS011;2964;42.144;24.730;2023-06-24T00:51:32;10.95;;;10.23;;
5876;SDS011;2964;42.144;24.730;2023-06-24T00:54:01;11.07;;;10.27;;
5876;SDS011;2964;42.144;24.730;2023-06-24T00:56:29;9.90;;;9.10;;
5876;SDS011;2964;42.144;24.730;2023-06-24T00:58:58;11.00;;;10.35;;
5876;SDS011;2964;42.144;24.730;2023-06-24T01:01:27;10.15;;;9.50;;
5876;SDS011;2964;42.144;24.730;2023-06-24T01:03:58;9.85;;;9.15;;
5876;SDS011;2964;42.144;24.730;2023-06-24T01:06:25;9.90;;;9.35;;
5876;SDS011;2964;42.144;24.730;2023-06-24T01:08:54;10.40;;;9.57;;
5876;SDS011;2964;42.144;24.730;2023-06-24T01:11:21;11.00;;;10.23;;
5876;SDS011;2964;42.144;24.730;2023-06-24T01:13:48;11.40;;;10.35;;
5876;SDS011;2964;42.144;24.730;2023-06-24T01:16:16;10.18;;;9.30;;
5876;SDS011;2964;42.144;24.730;2023-06-24T01:18:52;9.20;;;8.40;;
5876;SDS011;2964;42.144;24.730;2023-06-24T01:21:31;9.68;;;9.18;;
5876;SDS011;2964;42.144;24.730;2023-06-24T01:24:17;10.47;;;9.47;;
5876;SDS011;2964;42.144;24.730;2023-06-24T01:27:11;9.90;;;9.20;;
5876;SDS011;2964;42.144;24.730;2023-06-24T01:30:02;10.10;;;9.20;;
5876;SDS011;2964;42.144;24.730;2023-06-24T01:32:42;8.80;;;8.20;;
5876;SDS011;2964;42.144;24.730;2023-06-24T01:35:17;9.83;;;9.23;;
5876;SDS011;2964;42.144;24.730;2023-06-24T01:37:48;9.60;;;9.00;;
5876;SDS011;2964;42.144;24.730;2023-06-24T01:40:19;9.43;;;8.65;;
5876;SDS011;2964;42.144;24.730;2023-06-24T01:42:50;9.80;;;9.10;;
5876;SDS011;2964;42.144;24.730;2023-06-24T01:45:19;9.73;;;9.03;;
5876;SDS011;2964;42.144;24.730;2023-06-24T01:47:53;10.87;;;8.77;;
5876;SDS011;2964;42.144;24.730;2023-06-24T01:50:29;9.50;;;8.80;;
5876;SDS011;2964;42.144;24.730;2023-06-24T01:52:58;9.50;;;8.90;;
5876;SDS011;2964;42.144;24.730;2023-06-24T01:55:30;10.18;;;9.25;;
5876;SDS011;2964;42.144;24.730;2023-06-24T01:57:58;11.77;;;9.40;;
5876;SDS011;2964;42.144;24.730;2023-06-24T02:00:29;9.43;;;8.82;;
5876;SDS011;2964;42.144;24.730;2023-06-24T02:02:57;11.30;;;10.33;;
5876;SDS011;2964;42.144;24.730;2023-06-24T02:05:25;9.90;;;9.00;;
5876;SDS011;2964;42.144;24.730;2023-06-24T02:07:53;9.57;;;8.87;;
5876;SDS011;2964;42.144;24.730;2023-06-24T02:10:21;10.27;;;9.33;;
5876;SDS011;2964;42.144;24.730;2023-06-24T02:12:49;10.33;;;9.53;;
5876;SDS011;2964;42.144;24.730;2023-06-24T02:15:18;9.47;;;8.87;;
5876;SDS011;2964;42.144;24.730;2023-06-24T02:17:46;10.07;;;9.47;;
5876;SDS011;2964;42.144;24.730;2023-06-24T02:20:17;9.20;;;8.60;;
5876;SDS011;2964;42.144;24.730;2023-06-24T02:22:46;10.10;;;9.20;;
5876;SDS011;2964;42.144;24.730;2023-06-24T02:25:14;9.43;;;8.73;;
5876;SDS011;2964;42.144;24.730;2023-06-24T02:27:40;10.03;;;9.23;;
5876;SDS011;2964;42.144;24.730;2023-06-24T02:30:08;10.80;;;9.90;;
5876;SDS011;2964;42.144;24.730;2023-06-24T02:32:36;9.50;;;8.90;;
5876;SDS011;2964;42.144;24.730;2023-06-24T02:35:03;10.37;;;9.57;;
5876;SDS011;2964;42.144;24.730;2023-06-24T02:37:33;10.00;;;9.40;;
5876;SDS011;2964;42.144;24.730;2023-06-24T02:40:00;10.40;;;9.60;;
5876;SDS011;2964;42.144;24.730;2023-06-24T02:42:29;9.80;;;9.20;;
5876;SDS011;2964;42.144;24.730;2023-06-24T02:44:56;9.70;;;9.00;;
5876;SDS011;2964;42.144;24.730;2023-06-24T02:47:23;9.50;;;8.60;;
5876;SDS011;2964;42.144;24.730;2023-06-24T02:49:50;10.07;;;9.37;;
5876;SDS011;2964;42.144;24.730;2023-06-24T02:52:18;9.83;;;9.13;;
5876;SDS011;2964;42.144;24.730;2023-06-24T02:54:47;9.37;;;8.77;;
5876;SDS011;2964;42.144;24.730;2023-06-24T02:57:15;12.93;;;9.57;;
5876;SDS011;2964;42.144;24.730;2023-06-24T02:59:44;9.53;;;8.93;;
5876;SDS011;2964;42.144;24.730;2023-06-24T03:02:11;10.17;;;9.20;;
5876;SDS011;2964;42.144;24.730;2023-06-24T03:04:38;10.13;;;9.13;;
5876;SDS011;2964;42.144;24.730;2023-06-24T03:07:06;9.73;;;8.90;;
5876;SDS011;2964;42.144;24.730;2023-06-24T03:09:35;9.53;;;9.03;;
5876;SDS011;2964;42.144;24.730;2023-06-24T03:12:05;10.03;;;9.30;;
5876;SDS011;2964;42.144;24.730;2023-06-24T03:14:32;10.27;;;9.53;;
5876;SDS011;2964;42.144;24.730;2023-06-24T03:16:59;10.97;;;9.97;;
5876;SDS011;2964;42.144;24.730;2023-06-24T03:19:25;10.53;;;9.73;;
5876;SDS011;2964;42.144;24.730;2023-06-24T03:21:52;10.70;;;8.97;;
5876;SDS011;2964;42.144;24.730;2023-06-24T03:24:18;9.40;;;8.90;;
5876;SDS011;2964;42.144;24.730;2023-06-24T03:26:45;10.47;;;9.47;;
5876;SDS011;2964;42.144;24.730;2023-06-24T03:29:13;9.80;;;9.10;;
5876;SDS011;2964;42.144;24.730;2023-06-24T03:31:40;10.47;;;9.70;;
5876;SDS011;2964;42.144;24.730;2023-06-24T03:34:10;9.60;;;8.80;;
5876;SDS011;2964;42.144;24.730;2023-06-24T03:36:38;9.53;;;8.83;;
5876;SDS011;2964;42.144;24.730;2023-06-24T03:39:05;9.43;;;8.90;;
5876;SDS011;2964;42.144;24.730;2023-06-24T03:41:31;9.30;;;8.63;;
5876;SDS011;2964;42.144;24.730;2023-06-24T03:43:58;10.87;;;9.87;;
5876;SDS011;2964;42.144;24.730;2023-06-24T03:46:26;9.17;;;8.63;;
5876;SDS011;2964;42.144;24.730;2023-06-24T03:48:57;15.43;;;9.80;;
5876;SDS011;2964;42.144;24.730;2023-06-24T03:51:25;9.60;;;9.10;;
5876;SDS011;2964;42.144;24.730;2023-06-24T03:53:51;10.60;;;9.70;;
5876;SDS011;2964;42.144;24.730;2023-06-24T03:56:18;9.70;;;9.00;;
5876;SDS011;2964;42.144;24.730;2023-06-24T03:58:45;11.97;;;9.47;;
5876;SDS011;2964;42.144;24.730;2023-06-24T04:01:11;10.03;;;9.23;;
5876;SDS011;2964;42.144;24.730;2023-06-24T04:03:39;10.27;;;9.47;;
5876;SDS011;2964;42.144;24.730;2023-06-24T04:06:06;10.43;;;9.17;;
5876;SDS011;2964;42.144;24.730;2023-06-24T04:08:33;10.70;;;9.83;;
5876;SDS011;2964;42.144;24.730;2023-06-24T04:10:59;10.43;;;9.63;;
5876;SDS011;2964;42.144;24.730;2023-06-24T04:13:28;9.70;;;9.10;;
5876;SDS011;2964;42.144;24.730;2023-06-24T04:15:55;10.80;;;9.93;;
5876;SDS011;2964;42.144;24.730;2023-06-24T04:18:21;9.67;;;8.70;;
5876;SDS011;2964;42.144;24.730;2023-06-24T04:20:49;11.23;;;8.90;;
5876;SDS011;2964;42.144;24.730;2023-06-24T04:23:16;9.73;;;9.00;;
5876;SDS011;2964;42.144;24.730;2023-06-24T04:25:43;10.20;;;9.60;;
5876;SDS011;2964;42.144;24.730;2023-06-24T04:28:09;10.02;;;9.13;;
5876;SDS011;2964;42.144;24.730;2023-06-24T04:30:36;9.55;;;8.75;;
5876;SDS011;2964;42.144;24.730;2023-06-24T04:33:03;10.25;;;9.25;;
5876;SDS011;2964;42.144;24.730;2023-06-24T04:35:30;10.02;;;9.32;;
5876;SDS011;2964;42.144;24.730;2023-06-24T04:37:58;9.52;;;8.80;;
5876;SDS011;2964;42.144;24.730;2023-06-24T04:40:25;12.00;;;9.73;;
5876;SDS011;2964;42.144;24.730;2023-06-24T04:42:52;9.80;;;9.10;;
5876;SDS011;2964;42.144;24.730;2023-06-24T04:45:18;9.68;;;9.10;;
5876;SDS011;2964;42.144;24.730;2023-06-24T04:47:46;10.00;;;9.10;;
5876;SDS011;2964;42.144;24.730;2023-06-24T04:50:12;10.10;;;9.13;;
5876;SDS011;2964;42.144;24.730;2023-06-24T04:52:39;8.70;;;8.20;;
5876;SDS011;2964;42.144;24.730;2023-06-24T04:55:08;10.68;;;9.80;;
5876;SDS011;2964;42.144;24.730;2023-06-24T04:57:34;9.77;;;9.15;;
5876;SDS011;2964;42.144;24.730;2023-06-24T05:00:01;10.63;;;9.68;;
5876;SDS011;2964;42.144;24.730;2023-06-24T05:02:29;10.07;;;9.18;;
5876;SDS011;2964;42.144;24.730;2023-06-24T05:04:56;9.98;;;9.38;;
5876;SDS011;2964;42.144;24.730;2023-06-24T05:07:23;9.90;;;9.13;;
5876;SDS011;2964;42.144;24.730;2023-06-24T05:09:49;10.70;;;9.70;;
5876;SDS011;2964;42.144;24.730;2023-06-24T05:12:18;9.45;;;8.77;;
5876;SDS011;2964;42.144;24.730;2023-06-24T05:14:48;9.13;;;8.43;;
5876;SDS011;2964;42.144;24.730;2023-06-24T05:17:15;9.48;;;8.60;;
5876;SDS011;2964;42.144;24.730;2023-06-24T05:19:42;9.95;;;9.20;;
5876;SDS011;2964;42.144;24.730;2023-06-24T05:22:09;10.95;;;8.88;;
5876;SDS011;2964;42.144;24.730;2023-06-24T05:24:36;10.35;;;9.27;;
5876;SDS011;2964;42.144;24.730;2023-06-24T05:27:03;10.00;;;9.10;;
5876;SDS011;2964;42.144;24.730;2023-06-24T05:29:32;9.05;;;8.50;;
5876;SDS011;2964;42.144;24.730;2023-06-24T05:31:59;9.75;;;8.82;;
5876;SDS011;2964;42.144;24.730;2023-06-24T05:34:28;10.98;;;9.23;;
5876;SDS011;2964;42.144;24.730;2023-06-24T05:36:55;10.70;;;9.75;;
5876;SDS011;2964;42.144;24.730;2023-06-24T05:39:21;10.57;;;9.23;;
5876;SDS011;2964;42.144;24.730;2023-06-24T05:41:48;10.77;;;9.80;;
5876;SDS011;2964;42.144;24.730;2023-06-24T05:44:15;10.27;;;9.27;;
5876;SDS011;2964;42.144;24.730;2023-06-24T05:46:44;9.93;;;9.13;;
5876;SDS011;2964;42.144;24.730;2023-06-24T05:49:11;10.45;;;9.35;;
5876;SDS011;2964;42.144;24.730;2023-06-24T05:51:38;11.43;;;9.20;;
5876;SDS011;2964;42.144;24.730;2023-06-24T05:54:04;10.68;;;9.75;;
5876;SDS011;2964;42.144;24.730;2023-06-24T05:56:32;10.35;;;9.48;;
5876;SDS011;2964;42.144;24.730;2023-06-24T05:58:59;10.30;;;9.32;;
5876;SDS011;2964;42.144;24.730;2023-06-24T06:01:26;10.63;;;9.73;;
5876;SDS011;2964;42.144;24.730;2023-06-24T06:03:54;11.43;;;10.48;;
5876;SDS011;2964;42.144;24.730;2023-06-24T06:06:20;11.15;;;10.02;;
5876;SDS011;2964;42.144;24.730;2023-06-24T06:08:47;12.35;;;11.20;;
5876;SDS011;2964;42.144;24.730;2023-06-24T06:11:14;13.57;;;12.32;;
5876;SDS011;2964;42.144;24.730;2023-06-24T06:13:40;12.32;;;11.20;;
5876;SDS011;2964;42.144;24.730;2023-06-24T06:16:07;13.10;;;11.88;;
5876;SDS011;2964;42.144;24.730;2023-06-24T06:18:34;13.18;;;11.93;;
5876;SDS011;2964;42.144;24.730;2023-06-24T06:21:02;12.88;;;11.63;;
5876;SDS011;2964;42.144;24.730;2023-06-24T06:23:28;11.90;;;11.05;;
5876;SDS011;2964;42.144;24.730;2023-06-24T06:25:55;11.52;;;10.55;;
5876;SDS011;2964;42.144;24.730;2023-06-24T06:28:22;12.43;;;11.50;;
5876;SDS011;2964;42.144;24.730;2023-06-24T06:30:49;14.10;;;12.95;;
5876;SDS011;2964;42.144;24.730;2023-06-24T06:33:15;13.73;;;12.65;;
5876;SDS011;2964;42.144;24.730;2023-06-24T06:35:42;12.05;;;11.02;;
5876;SDS011;2964;42.144;24.730;2023-06-24T06:38:10;13.00;;;11.68;;
5876;SDS011;2964;42.144;24.730;2023-06-24T06:40:37;12.05;;;11.32;;
5876;SDS011;2964;42.144;24.730;2023-06-24T06:43:03;13.70;;;12.57;;
5876;SDS011;2964;42.144;24.730;2023-06-24T06:45:30;13.13;;;11.95;;
5876;SDS011;2964;42.144;24.730;2023-06-24T06:47:57;12.85;;;11.75;;
5876;SDS011;2964;42.144;24.730;2023-06-24T06:50:23;12.63;;;11.68;;
5876;SDS011;2964;42.144;24.730;2023-06-24T06:52:50;12.05;;;11.20;;
5876;SDS011;2964;42.144;24.730;2023-06-24T06:55:18;12.70;;;11.90;;
5876;SDS011;2964;42.144;24.730;2023-06-24T06:57:45;11.90;;;11.13;;
5876;SDS011;2964;42.144;24.730;2023-06-24T07:00:12;12.18;;;11.15;;
5876;SDS011;2964;42.144;24.730;2023-06-24T07:02:39;13.80;;;12.57;;
5876;SDS011;2964;42.144;24.730;2023-06-24T07:05:06;11.82;;;11.02;;
5876;SDS011;2964;42.144;24.730;2023-06-24T07:07:35;12.35;;;10.93;;
5876;SDS011;2964;42.144;24.730;2023-06-24T07:10:02;12.27;;;10.80;;
5876;SDS011;2964;42.144;24.730;2023-06-24T07:12:30;11.75;;;10.65;;
5876;SDS011;2964;42.144;24.730;2023-06-24T07:14:57;11.80;;;11.02;;
5876;SDS011;2964;42.144;24.730;2023-06-24T07:17:24;12.05;;;10.98;;
5876;SDS011;2964;42.144;24.730;2023-06-24T07:19:50;12.98;;;11.65;;
5876;SDS011;2964;42.144;24.730;2023-06-24T07:22:17;11.13;;;9.73;;
5876;SDS011;2964;42.144;24.730;2023-06-24T07:24:44;12.48;;;11.73;;
5876;SDS011;2964;42.144;24.730;2023-06-24T07:27:10;14.75;;;11.45;;
5876;SDS011;2964;42.144;24.730;2023-06-24T07:29:38;12.25;;;11.07;;
5876;SDS011;2964;42.144;24.730;2023-06-24T07:32:05;12.07;;;10.98;;
5876;SDS011;2964;42.144;24.730;2023-06-24T07:34:33;11.63;;;10.75;;
5876;SDS011;2964;42.144;24.730;2023-06-24T07:37:00;12.82;;;11.57;;
5876;SDS011;2964;42.144;24.730;2023-06-24T07:39:26;12.10;;;11.15;;
5876;SDS011;2964;42.144;24.730;2023-06-24T07:41:53;13.15;;;11.23;;
5876;SDS011;2964;42.144;24.730;2023-06-24T07:44:20;11.75;;;10.75;;
5876;SDS011;2964;42.144;24.730;2023-06-24T07:46:48;13.65;;;10.38;;
5876;SDS011;2964;42.144;24.730;2023-06-24T07:49:16;11.35;;;9.80;;
5876;SDS011;2964;42.144;24.730;2023-06-24T07:51:42;11.73;;;10.90;;
5876;SDS011;2964;42.144;24.730;2023-06-24T07:54:10;11.75;;;10.68;;
5876;SDS011;2964;42.144;24.730;2023-06-24T07:56:37;12.18;;;11.07;;
5876;SDS011;2964;42.144;24.730;2023-06-24T07:59:03;10.63;;;9.93;;
5876;SDS011;2964;42.144;24.730;2023-06-24T08:01:30;11.27;;;10.48;;
5876;SDS011;2964;42.144;24.730;2023-06-24T08:03:58;12.40;;;11.50;;
5876;SDS011;2964;42.144;24.730;2023-06-24T08:06:25;11.07;;;10.30;;
5876;SDS011;2964;42.144;24.730;2023-06-24T08:08:52;12.10;;;10.55;;
5876;SDS011;2964;42.144;24.730;2023-06-24T08:11:18;10.75;;;9.77;;
5876;SDS011;2964;42.144;24.730;2023-06-24T08:13:46;11.43;;;10.63;;
5876;SDS011;2964;42.144;24.730;2023-06-24T08:16:15;10.32;;;9.55;;
5876;SDS011;2964;42.144;24.730;2023-06-24T08:18:44;13.43;;;9.93;;
5876;SDS011;2964;42.144;24.730;2023-06-24T08:21:12;9.75;;;9.05;;
5876;SDS011;2964;42.144;24.730;2023-06-24T08:23:39;11.45;;;10.65;;
5876;SDS011;2964;42.144;24.730;2023-06-24T08:26:06;10.93;;;10.18;;
5876;SDS011;2964;42.144;24.730;2023-06-24T08:28:33;10.02;;;9.43;;
5876;SDS011;2964;42.144;24.730;2023-06-24T08:31:00;10.45;;;9.65;;
5876;SDS011;2964;42.144;24.730;2023-06-24T08:33:27;10.02;;;9.18;;
5876;SDS011;2964;42.144;24.730;2023-06-24T08:35:53;10.73;;;9.82;;
5876;SDS011;2964;42.144;24.730;2023-06-24T08:38:21;10.77;;;9.85;;
5876;SDS011;2964;42.144;24.730;2023-06-24T08:40:57;12.35;;;11.45;;
5876;SDS011;2964;42.144;24.730;2023-06-24T08:43:28;10.13;;;9.45;;
5876;SDS011;2964;42.144;24.730;2023-06-24T08:45:55;9.73;;;9.13;;
5876;SDS011;2964;42.144;24.730;2023-06-24T08:48:22;9.55;;;9.10;;
5876;SDS011;2964;42.144;24.730;2023-06-24T08:50:50;10.35;;;9.82;;
5876;SDS011;2964;42.144;24.730;2023-06-24T08:53:18;11.25;;;10.52;;
5876;SDS011;2964;42.144;24.730;2023-06-24T08:55:48;12.38;;;11.43;;
5876;SDS011;2964;42.144;24.730;2023-06-24T08:58:19;13.00;;;10.07;;
5876;SDS011;2964;42.144;24.730;2023-06-24T09:00:46;10.95;;;9.93;;
5876;SDS011;2964;42.144;24.730;2023-06-24T09:03:12;10.05;;;9.45;;
5876;SDS011;2964;42.144;24.730;2023-06-24T09:05:39;10.65;;;10.05;;
5876;SDS011;2964;42.144;24.730;2023-06-24T09:08:06;10.40;;;9.25;;
5876;SDS011;2964;42.144;24.730;2023-06-24T09:10:34;10.85;;;10.25;;
5876;SDS011;2964;42.144;24.730;2023-06-24T09:13:02;13.70;;;10.02;;
5876;SDS011;2964;42.144;24.730;2023-06-24T09:15:30;10.13;;;9.32;;
5876;SDS011;2964;42.144;24.730;2023-06-24T09:17:57;12.32;;;9.88;;
5876;SDS011;2964;42.144;24.730;2023-06-24T09:20:25;9.88;;;9.15;;
5876;SDS011;2964;42.144;24.730;2023-06-24T09:22:56;11.20;;;10.27;;
5876;SDS011;2964;42.144;24.730;2023-06-24T09:25:24;9.88;;;9.00;;
5876;SDS011;2964;42.144;24.730;2023-06-24T09:27:52;11.85;;;10.93;;
5876;SDS011;2964;42.144;24.730;2023-06-24T09:30:21;10.45;;;9.63;;
5876;SDS011;2964;42.144;24.730;2023-06-24T09:32:49;10.52;;;9.77;;
5876;SDS011;2964;42.144;24.730;2023-06-24T09:35:16;11.10;;;10.20;;
5876;SDS011;2964;42.144;24.730;2023-06-24T09:37:48;11.15;;;10.20;;
5876;SDS011;2964;42.144;24.730;2023-06-24T09:40:15;11.57;;;10.75;;
5876;SDS011;2964;42.144;24.730;2023-06-24T09:42:47;12.18;;;11.25;;
5876;SDS011;2964;42.144;24.730;2023-06-24T09:45:20;11.30;;;10.23;;
5876;SDS011;2964;42.144;24.730;2023-06-24T09:47:48;10.82;;;10.02;;
5876;SDS011;2964;42.144;24.730;2023-06-24T09:50:14;11.23;;;10.43;;
5876;SDS011;2964;42.144;24.730;2023-06-24T09:52:41;11.30;;;10.45;;
5876;SDS011;2964;42.144;24.730;2023-06-24T09:55:11;10.05;;;9.45;;
5876;SDS011;2964;42.144;24.730;2023-06-24T09:57:40;13.13;;;10.07;;
5876;SDS011;2964;42.144;24.730;2023-06-24T10:00:11;11.32;;;10.32;;
5876;SDS011;2964;42.144;24.730;2023-06-24T10:02:42;10.70;;;9.70;;
5876;SDS011;2964;42.144;24.730;2023-06-24T10:05:10;11.38;;;10.55;;
5876;SDS011;2964;42.144;24.730;2023-06-24T10:07:37;10.20;;;9.40;;
5876;SDS011;2964;42.144;24.730;2023-06-24T10:10:06;11.25;;;10.15;;
5876;SDS011;2964;42.144;24.730;2023-06-24T10:12:34;10.90;;;10.07;;
5876;SDS011;2964;42.144;24.730;2023-06-24T10:15:02;10.82;;;9.98;;
5876;SDS011;2964;42.144;24.730;2023-06-24T10:17:30;10.30;;;9.48;;
5876;SDS011;2964;42.144;24.730;2023-06-24T10:19:58;10.85;;;10.00;;
5876;SDS011;2964;42.144;24.730;2023-06-24T10:22:29;9.95;;;9.35;;
5876;SDS011;2964;42.144;24.730;2023-06-24T10:24:59;11.43;;;10.63;;
5876;SDS011;2964;42.144;24.730;2023-06-24T10:27:26;10.57;;;9.70;;
5876;SDS011;2964;42.144;24.730;2023-06-24T10:29:58;11.30;;;10.60;;
5876;SDS011;2964;42.144;24.730;2023-06-24T10:32:29;10.63;;;9.93;;
5876;SDS011;2964;42.144;24.730;2023-06-24T10:35:09;10.63;;;9.65;;
5876;SDS011;2964;42.144;24.730;2023-06-24T10:37:53;11.02;;;10.20;;
5876;SDS011;2964;42.144;24.730;2023-06-24T10:40:33;9.57;;;9.07;;
5876;SDS011;2964;42.144;24.730;2023-06-24T10:43:01;11.25;;;10.27;;
5876;SDS011;2964;42.144;24.730;2023-06-24T10:45:29;9.90;;;9.20;;
5876;SDS011;2964;42.144;24.730;2023-06-24T10:47:56;11.85;;;11.00;;
5876;SDS011;2964;42.144;24.730;2023-06-24T10:50:26;11.13;;;10.43;;
5876;SDS011;2964;42.144;24.730;2023-06-24T10:52:52;11.93;;;11.15;;
5876;SDS011;2964;42.144;24.730;2023-06-24T10:55:21;11.45;;;10.70;;
5876;SDS011;2964;42.144;24.730;2023-06-24T10:57:49;12.52;;;11.57;;
5876;SDS011;2964;42.144;24.730;2023-06-24T11:00:16;11.93;;;10.82;;
5876;SDS011;2964;42.144;24.730;2023-06-24T11:02:43;11.07;;;10.38;;
5876;SDS011;2964;42.144;24.730;2023-06-24T11:05:10;10.77;;;9.95;;
5876;SDS011;2964;42.144;24.730;2023-06-24T11:07:38;10.65;;;9.93;;
5876;SDS011;2964;42.144;24.730;2023-06-24T11:10:06;10.73;;;10.02;;
5876;SDS011;2964;42.144;24.730;2023-06-24T11:12:34;10.90;;;9.98;;
5876;SDS011;2964;42.144;24.730;2023-06-24T11:15:02;11.82;;;11.00;;
5876;SDS011;2964;42.144;24.730;2023-06-24T11:17:31;11.77;;;10.93;;
5876;SDS011;2964;42.144;24.730;2023-06-24T11:19:59;12.13;;;11.27;;
5876;SDS011;2964;42.144;24.730;2023-06-24T11:22:27;18.33;;;14.80;;
5876;SDS011;2964;42.144;24.730;2023-06-24T11:24:55;12.18;;;11.20;;
5876;SDS011;2964;42.144;24.730;2023-06-24T11:27:25;12.05;;;11.20;;
5876;SDS011;2964;42.144;24.730;2023-06-24T11:29:52;13.80;;;12.60;;
5876;SDS011;2964;42.144;24.730;2023-06-24T11:32:19;12.07;;;11.27;;
5876;SDS011;2964;42.144;24.730;2023-06-24T11:34:46;13.15;;;12.00;;
5876;SDS011;2964;42.144;24.730;2023-06-24T11:37:14;12.38;;;11.40;;
5876;SDS011;2964;42.144;24.730;2023-06-24T11:39:42;12.43;;;11.52;;
5876;SDS011;2964;42.144;24.730;2023-06-24T11:42:11;13.02;;;12.13;;
5876;SDS011;2964;42.144;24.730;2023-06-24T11:44:40;12.07;;;11.30;;
5876;SDS011;2964;42.144;24.730;2023-06-24T11:47:08;11.98;;;11.18;;
5876;SDS011;2964;42.144;24.730;2023-06-24T11:49:49;12.95;;;11.77;;
5876;SDS011;2964;42.144;24.730;2023-06-24T11:52:16;11.57;;;10.52;;
5876;SDS011;2964;42.144;24.730;2023-06-24T11:54:43;12.18;;;11.25;;
5876;SDS011;2964;42.144;24.730;2023-06-24T11:57:12;12.43;;;11.73;;
5876;SDS011;2964;42.144;24.730;2023-06-24T11:59:39;12.70;;;11.90;;
5876;SDS011;2964;42.144;24.730;2023-06-24T12:02:05;12.30;;;11.35;;
5876;SDS011;2964;42.144;24.730;2023-06-24T12:04:32;12.23;;;11.50;;
5876;SDS011;2964;42.144;24.730;2023-06-24T12:07:00;12.05;;;11.35;;
5876;SDS011;2964;42.144;24.730;2023-06-24T12:09:26;11.65;;;10.95;;
5876;SDS011;2964;42.144;24.730;2023-06-24T12:11:53;13.07;;;12.02;;
5876;SDS011;2964;42.144;24.730;2023-06-24T12:14:21;12.48;;;11.65;;
5876;SDS011;2964;42.144;24.730;2023-06-24T12:16:48;11.63;;;10.52;;
5876;SDS011;2964;42.144;24.730;2023-06-24T12:19:16;11.88;;;10.98;;
5876;SDS011;2964;42.144;24.730;2023-06-24T12:21:43;11.13;;;10.32;;
5876;SDS011;2964;42.144;24.730;2023-06-24T12:24:10;12.80;;;11.68;;
5876;SDS011;2964;42.144;24.730;2023-06-24T12:26:38;12.88;;;11.63;;
5876;SDS011;2964;42.144;24.730;2023-06-24T12:29:05;11.50;;;10.52;;
5876;SDS011;2964;42.144;24.730;2023-06-24T12:31:34;11.98;;;11.07;;
5876;SDS011;2964;42.144;24.730;2023-06-24T12:34:02;12.40;;;11.50;;
5876;SDS011;2964;42.144;24.730;2023-06-24T12:36:30;11.18;;;10.40;;
5876;SDS011;2964;42.144;24.730;2023-06-24T12:38:58;11.80;;;11.07;;
5876;SDS011;2964;42.144;24.730;2023-06-24T12:41:26;11.43;;;10.68;;
5876;SDS011;2964;42.144;24.730;2023-06-24T12:43:54;11.48;;;10.77;;
5876;SDS011;2964;42.144;24.730;2023-06-24T12:46:22;11.52;;;10.82;;
5876;SDS011;2964;42.144;24.730;2023-06-24T12:48:58;12.30;;;11.43;;
5876;SDS011;2964;42.144;24.730;2023-06-24T12:51:26;10.85;;;10.25;;
5876;SDS011;2964;42.144;24.730;2023-06-24T12:53:54;11.45;;;10.75;;
5876;SDS011;2964;42.144;24.730;2023-06-24T12:56:22;11.77;;;10.95;;
5876;SDS011;2964;42.144;24.730;2023-06-24T12:58:52;11.52;;;10.82;;
5876;SDS011;2964;42.144;24.730;2023-06-24T13:01:22;12.25;;;11.25;;
5876;SDS011;2964;42.144;24.730;2023-06-24T13:03:50;11.65;;;10.80;;
5876;SDS011;2964;42.144;24.730;2023-06-24T13:06:19;12.65;;;11.60;;
5876;SDS011;2964;42.144;24.730;2023-06-24T13:08:52;11.38;;;10.68;;
5876;SDS011;2964;42.144;24.730;2023-06-24T13:11:28;11.02;;;10.23;;
5876;SDS011;2964;42.144;24.730;2023-06-24T13:13:58;11.43;;;10.43;;
5876;SDS011;2964;42.144;24.730;2023-06-24T13:16:29;11.10;;;10.30;;
5876;SDS011;2964;42.144;24.730;2023-06-24T13:18:58;13.40;;;12.48;;
5876;SDS011;2964;42.144;24.730;2023-06-24T13:21:26;13.18;;;11.82;;
5876;SDS011;2964;42.144;24.730;2023-06-24T13:23:52;13.07;;;11.95;;
5876;SDS011;2964;42.144;24.730;2023-06-24T13:26:19;12.43;;;11.43;;
5876;SDS011;2964;42.144;24.730;2023-06-24T13:28:46;12.27;;;11.38;;
5876;SDS011;2964;42.144;24.730;2023-06-24T13:31:14;12.40;;;11.45;;
5876;SDS011;2964;42.144;24.730;2023-06-24T13:33:41;11.82;;;11.13;;
5876;SDS011;2964;42.144;24.730;2023-06-24T13:36:08;12.18;;;11.38;;
5876;SDS011;2964;42.144;24.730;2023-06-24T13:38:54;13.05;;;12.05;;
5876;SDS011;2964;42.144;24.730;2023-06-24T13:41:21;10.90;;;10.27;;
5876;SDS011;2964;42.144;24.730;2023-06-24T13:43:48;55.90;;;17.67;;
5876;SDS011;2964;42.144;24.730;2023-06-24T13:46:15;11.43;;;10.82;;
5876;SDS011;2964;42.144;24.730;2023-06-24T13:48:42;12.88;;;11.50;;
5876;SDS011;2964;42.144;24.730;2023-06-24T13:51:10;11.15;;;10.32;;
5876;SDS011;2964;42.144;24.730;2023-06-24T13:53:36;11.40;;;10.75;;
5876;SDS011;2964;42.144;24.730;2023-06-24T13:56:04;11.75;;;11.05;;
5876;SDS011;2964;42.144;24.730;2023-06-24T13:58:31;10.82;;;10.05;;
5876;SDS011;2964;42.144;24.730;2023-06-24T14:00:58;11.07;;;10.52;;
5876;SDS011;2964;42.144;24.730;2023-06-24T14:03:25;11.65;;;10.57;;
5876;SDS011;2964;42.144;24.730;2023-06-24T14:05:52;11.70;;;10.90;;
5876;SDS011;2964;42.144;24.730;2023-06-24T14:08:18;10.82;;;10.02;;
5876;SDS011;2964;42.144;24.730;2023-06-24T14:10:45;11.65;;;10.75;;
5876;SDS011;2964;42.144;24.730;2023-06-24T14:13:13;11.32;;;10.52;;
5876;SDS011;2964;42.144;24.730;2023-06-24T14:15:39;11.50;;;10.88;;
5876;SDS011;2964;42.144;24.730;2023-06-24T14:18:06;11.77;;;10.98;;
5876;SDS011;2964;42.144;24.730;2023-06-24T14:20:33;11.00;;;10.30;;
5876;SDS011;2964;42.144;24.730;2023-06-24T14:22:59;10.75;;;10.13;;
5876;SDS011;2964;42.144;24.730;2023-06-24T14:25:26;10.90;;;10.13;;
5876;SDS011;2964;42.144;24.730;2023-06-24T14:27:53;11.63;;;10.70;;
5876;SDS011;2964;42.144;24.730;2023-06-24T14:30:21;11.48;;;10.77;;
5876;SDS011;2964;42.144;24.730;2023-06-24T14:32:48;12.07;;;10.88;;
5876;SDS011;2964;42.144;24.730;2023-06-24T14:35:14;10.73;;;10.00;;
5876;SDS011;2964;42.144;24.730;2023-06-24T14:37:41;10.32;;;9.82;;
5876;SDS011;2964;42.144;24.730;2023-06-24T14:40:08;12.07;;;11.00;;
5876;SDS011;2964;42.144;24.730;2023-06-24T14:42:35;10.35;;;9.75;;
5876;SDS011;2964;42.144;24.730;2023-06-24T14:45:02;12.13;;;11.13;;
5876;SDS011;2964;42.144;24.730;2023-06-24T14:47:30;10.55;;;9.80;;
5876;SDS011;2964;42.144;24.730;2023-06-24T14:49:57;11.52;;;10.90;;